Aviation Digital Data Service (ADDS)

Output produced by METARs form (2146 UTC 31 August 2015)
found at http://aviationweather.gov/adds/metars/
 
KMPV 311720Z 3118/0118 27009G20KT P6SM BKN050 
     FM010000 30005KT P6SM SCT040 
     FM010600 VRB02KT 1SM BR BKN002 
     FM011300 VRB05KT P6SM SKC